Time,TemperatureF,DewpointF,PressureIn,WindDirection,WindDirectionDegrees,WindSpeedMPH,WindSpeedGustMPH,Humidity,HourlyPrecipIn,Conditions,Clouds,dailyrainin,SolarRadiationWatts/m^2,SoftwareType,DateUTC
2013-06-27 00:02:00,78.0,67.0,29.80,ESE,118,3.0,8.0,70,0.00,,,0.00,0.000000,,2013-06-27 05:02:00,
2013-06-27 00:12:00,77.0,67.0,29.79,ESE,118,5.0,7.0,72,0.00,,,0.00,0.000000,,2013-06-27 05:12:00,
2013-06-27 00:21:00,77.0,67.0,29.79,ESE,118,3.0,7.0,72,0.00,,,0.00,0.000000,,2013-06-27 05:21:00,
2013-06-27 00:32:00,77.0,68.0,29.80,ESE,118,3.0,5.0,74,0.00,,,0.00,0.000000,,2013-06-27 05:32:00,
2013-06-27 00:42:00,76.0,67.0,29.79,ESE,118,2.0,3.0,74,0.00,,,0.00,0.000000,,2013-06-27 05:42:00,
2013-06-27 00:53:00,76.0,67.0,29.79,ESE,118,2.0,3.0,74,0.00,,,0.00,0.000000,,2013-06-27 05:53:00,
2013-06-27 01:01:00,76.0,67.0,29.79,ESE,118,5.0,7.0,74,0.00,,,0.00,0.000000,,2013-06-27 06:01:00,
2013-06-27 01:12:00,76.0,67.0,29.79,ESE,118,3.0,7.0,74,0.00,,,0.00,0.000000,,2013-06-27 06:12:00,
2013-06-27 01:22:00,76.0,67.0,29.79,ESE,118,2.0,5.0,75,0.00,,,0.00,0.000000,,2013-06-27 06:22:00,
2013-06-27 01:34:00,76.0,68.0,29.79,ESE,119,3.0,5.0,76,0.00,,,0.00,0.000000,,2013-06-27 06:34:00,
2013-06-27 01:43:00,75.0,67.0,29.79,ESE,118,2.0,3.0,77,0.00,,,0.00,0.000000,,2013-06-27 06:43:00,
2013-06-27 01:53:00,75.0,67.0,29.80,ESE,119,3.0,5.0,76,0.00,,,0.00,0.000000,,2013-06-27 06:53:00,
2013-06-27 02:02:00,75.0,67.0,29.79,ESE,118,3.0,5.0,76,0.00,,,0.00,0.000000,,2013-06-27 07:02:00,
2013-06-27 02:12:00,75.0,67.0,29.79,ESE,118,3.0,7.0,76,0.00,,,0.00,0.000000,,2013-06-27 07:12:00,
2013-06-27 02:22:00,75.0,67.0,29.79,ESE,118,3.0,7.0,76,0.00,,,0.00,0.000000,,2013-06-27 07:22:00,
2013-06-27 02:33:00,75.0,67.0,29.79,ESE,117,5.0,7.0,75,0.00,,,0.00,0.000000,,2013-06-27 07:33:00,
2013-06-27 02:42:00,75.0,67.0,29.80,ESE,117,2.0,5.0,76,0.00,,,0.00,0.000000,,2013-06-27 07:42:00,
2013-06-27 02:52:00,74.0,66.0,29.79,ESE,117,2.0,3.0,77,0.00,,,0.00,0.000000,,2013-06-27 07:52:00,
2013-06-27 03:01:00,74.0,67.0,29.79,ESE,117,2.0,5.0,79,0.00,,,0.00,0.000000,,2013-06-27 08:01:00,
2013-06-27 03:11:00,73.0,66.0,29.80,ESE,117,3.0,3.0,80,0.00,,,0.00,0.000000,,2013-06-27 08:11:00,
2013-06-27 03:22:00,73.0,67.0,29.79,ESE,115,5.0,7.0,81,0.00,,,0.00,0.000000,,2013-06-27 08:22:00,
2013-06-27 03:34:00,73.0,67.0,29.80,ESE,111,3.0,7.0,82,0.00,,,0.00,0.000000,,2013-06-27 08:34:00,
2013-06-27 03:52:00,73.0,67.0,29.80,East,101,5.0,8.0,81,0.00,,,0.00,0.000000,,2013-06-27 08:52:00,
2013-06-27 04:02:00,73.0,67.0,29.80,East,101,3.0,7.0,82,0.00,,,0.00,0.000000,,2013-06-27 09:02:00,
2013-06-27 04:22:00,73.0,66.0,29.80,East,101,5.0,8.0,80,0.00,,,0.00,0.000000,,2013-06-27 09:22:00,
2013-06-27 04:34:00,73.0,66.0,29.80,ESE,103,5.0,8.0,80,0.00,,,0.00,0.000000,,2013-06-27 09:34:00,
2013-06-27 04:43:00,73.0,66.0,29.80,ESE,103,3.0,7.0,80,0.00,,,0.00,0.000000,,2013-06-27 09:43:00,
2013-06-27 04:53:00,73.0,66.0,29.80,ESE,103,5.0,7.0,80,0.00,,,0.00,0.000000,,2013-06-27 09:53:00,
2013-06-27 05:01:00,73.0,67.0,29.79,ESE,107,3.0,8.0,81,0.00,,,0.00,0.000000,,2013-06-27 10:01:00,
2013-06-27 05:11:00,73.0,67.0,29.79,ESE,109,5.0,8.0,81,0.00,,,0.00,0.000000,,2013-06-27 10:11:00,
2013-06-27 05:22:00,72.0,67.0,29.78,ESE,112,3.0,8.0,83,0.00,,,0.00,0.000000,,2013-06-27 10:22:00,
2013-06-27 05:32:00,72.0,67.0,29.78,ESE,112,3.0,7.0,83,0.00,,,0.00,0.000000,,2013-06-27 10:32:00,
2013-06-27 05:43:00,72.0,67.0,29.78,ESE,112,3.0,7.0,83,0.00,,,0.00,0.000000,,2013-06-27 10:43:00,
2013-06-27 05:54:00,72.0,67.0,29.78,ESE,112,3.0,7.0,83,0.00,,,0.00,0.000000,,2013-06-27 10:54:00,
2013-06-27 06:01:00,71.0,66.0,29.78,ESE,113,2.0,5.0,84,0.00,,,0.00,0.000000,,2013-06-27 11:01:00,
2013-06-27 06:11:00,71.0,66.0,29.78,ESE,113,2.0,5.0,84,0.00,,,0.00,0.000000,,2013-06-27 11:11:00,
2013-06-27 06:21:00,71.0,66.0,29.78,ESE,115,1.0,5.0,85,0.00,,,0.00,0.000000,,2013-06-27 11:21:00,
2013-06-27 06:33:00,71.0,66.0,29.80,ESE,115,2.0,3.0,85,0.00,,,0.00,0.000000,,2013-06-27 11:33:00,
2013-06-27 06:43:00,72.0,67.0,29.84,North,6,21.0,26.0,85,0.00,,,0.00,0.000000,,2013-06-27 11:43:00,
2013-06-27 06:52:00,73.0,67.0,29.85,NNE,14,6.0,17.0,81,0.00,,,0.00,0.000000,,2013-06-27 11:52:00,
2013-06-27 07:01:00,73.0,67.0,29.85,NNE,17,13.0,15.0,82,0.00,,,0.00,0.000000,,2013-06-27 12:01:00,
2013-06-27 07:11:00,74.0,67.0,29.84,NE,50,6.0,9.0,79,0.00,,,0.00,0.000000,,2013-06-27 12:11:00,
2013-06-27 07:22:00,74.0,67.0,29.82,ESE,102,5.0,10.0,78,0.00,,,0.00,0.000000,,2013-06-27 12:22:00,
2013-06-27 07:34:00,73.0,67.0,29.81,SSE,166,6.0,8.0,81,0.00,,,0.00,0.000000,,2013-06-27 12:34:00,
2013-06-27 07:42:00,73.0,68.0,29.81,SSE,167,5.0,7.0,83,0.00,,,0.00,0.000000,,2013-06-27 12:42:00,
2013-06-27 08:01:00,73.0,68.0,29.80,SSE,150,5.0,8.0,83,0.00,,,0.00,0.000000,,2013-06-27 13:01:00,
2013-06-27 08:11:00,73.0,68.0,29.80,SSE,155,5.0,8.0,83,0.00,,,0.00,0.000000,,2013-06-27 13:11:00,
2013-06-27 08:22:00,73.0,68.0,29.80,SSE,151,4.0,8.0,84,0.00,,,0.00,0.000000,,2013-06-27 13:22:00,
2013-06-27 08:34:00,73.0,68.0,29.81,SE,145,3.0,6.0,83,0.00,,,0.00,0.000000,,2013-06-27 13:34:00,
2013-06-27 08:43:00,73.0,68.0,29.82,ENE,77,5.0,7.0,83,0.00,,,0.00,0.000000,,2013-06-27 13:43:00,
2013-06-27 08:52:00,74.0,68.0,29.83,ENE,59,6.0,8.0,83,0.00,,,0.00,0.000000,,2013-06-27 13:52:00,
2013-06-27 09:01:00,74.0,68.0,29.81,ESE,111,9.0,13.0,82,0.00,,,0.00,0.000000,,2013-06-27 14:01:00,
2013-06-27 09:11:00,75.0,69.0,29.81,South,175,5.0,12.0,82,0.00,,,0.00,0.000000,,2013-06-27 14:11:00,
2013-06-27 09:22:00,75.0,69.0,29.80,SE,144,8.0,12.0,81,0.00,,,0.00,0.000000,,2013-06-27 14:22:00,
2013-06-27 09:33:00,76.0,70.0,29.80,SSE,153,7.0,12.0,82,0.00,,,0.00,0.000000,,2013-06-27 14:33:00,
2013-06-27 09:43:00,76.0,70.0,29.80,ESE,116,9.0,12.0,82,0.00,,,0.00,0.000000,,2013-06-27 14:43:00,
2013-06-27 09:52:00,77.0,71.0,29.80,SSE,148,7.0,12.0,81,0.00,,,0.00,0.000000,,2013-06-27 14:52:00,
2013-06-27 10:11:00,77.0,70.0,29.82,East,93,4.0,7.0,80,0.00,,,0.00,0.000000,,2013-06-27 15:11:00,
2013-06-27 10:22:00,78.0,71.0,29.82,East,94,7.0,10.0,78,0.00,,,0.00,0.000000,,2013-06-27 15:22:00,
2013-06-27 10:33:00,78.0,71.0,29.81,SSE,152,6.0,10.0,79,0.00,,,0.00,0.000000,,2013-06-27 15:33:00,
2013-06-27 10:42:00,79.0,72.0,29.82,SSE,149,4.0,9.0,78,0.00,,,0.00,0.000000,,2013-06-27 15:42:00,
2013-06-27 10:52:00,80.0,72.0,29.82,East,101,7.0,10.0,78,0.00,,,0.00,0.000000,,2013-06-27 15:52:00,
2013-06-27 11:02:00,80.0,72.0,29.82,ESE,122,9.0,12.0,76,0.00,,,0.00,0.000000,,2013-06-27 16:02:00,
2013-06-27 11:11:00,80.0,72.0,29.82,ESE,120,6.0,12.0,78,0.00,,,0.00,0.000000,,2013-06-27 16:11:00,
2013-06-27 11:23:00,81.0,73.0,29.82,ESE,114,6.0,10.0,77,0.00,,,0.00,0.000000,,2013-06-27 16:23:00,
2013-06-27 11:43:00,82.0,73.0,29.82,ESE,103,8.0,15.0,75,0.00,,,0.00,0.000000,,2013-06-27 16:43:00,
2013-06-27 11:53:00,83.0,74.0,29.81,SSE,153,10.0,14.0,75,0.00,,,0.00,0.000000,,2013-06-27 16:53:00,
2013-06-27 12:01:00,83.0,73.0,29.80,ESE,117,8.0,13.0,73,0.00,,,0.00,0.000000,,2013-06-27 17:01:00,
2013-06-27 12:11:00,83.0,73.0,29.80,ESE,120,11.0,17.0,72,0.00,,,0.00,0.000000,,2013-06-27 17:11:00,
2013-06-27 12:22:00,84.0,74.0,29.80,SSE,159,10.0,15.0,73,0.00,,,0.00,0.000000,,2013-06-27 17:22:00,
2013-06-27 12:33:00,84.0,74.0,29.81,East,86,10.0,14.0,73,0.00,,,0.00,0.000000,,2013-06-27 17:33:00,
2013-06-27 12:43:00,85.0,75.0,29.82,ESE,110,8.0,16.0,71,0.00,,,0.00,0.000000,,2013-06-27 17:43:00,
2013-06-27 12:53:00,85.0,75.0,29.83,ENE,57,12.0,17.0,73,0.00,,,0.00,0.000000,,2013-06-27 17:53:00,
2013-06-27 13:01:00,84.0,75.0,29.83,ENE,61,14.0,18.0,75,0.00,,,0.00,0.000000,,2013-06-27 18:01:00,
2013-06-27 13:11:00,84.0,74.0,29.84,East,88,13.0,20.0,73,0.00,,,0.00,0.000000,,2013-06-27 18:11:00,
2013-06-27 13:22:00,85.0,75.0,29.84,NE,53,15.0,20.0,73,0.00,,,0.00,0.000000,,2013-06-27 18:22:00,
2013-06-27 13:32:00,85.0,75.0,29.84,East,82,13.0,21.0,72,0.00,,,0.00,0.000000,,2013-06-27 18:32:00,
2013-06-27 13:44:00,85.0,76.0,29.84,ENE,63,18.0,25.0,74,0.00,,,0.00,0.000000,,2013-06-27 18:44:00,
2013-06-27 13:52:00,83.0,74.0,29.85,ENE,62,15.0,25.0,74,0.00,,,0.00,0.000000,,2013-06-27 18:52:00,
2013-06-27 14:23:00,82.0,71.0,29.85,ENE,70,18.0,26.0,70,0.00,,,0.00,0.000000,,2013-06-27 19:23:00,
2013-06-27 14:33:00,82.0,70.0,29.85,ENE,61,20.0,25.0,68,0.00,,,0.00,0.000000,,2013-06-27 19:33:00,
2013-06-27 14:42:00,83.0,70.0,29.85,ENE,67,20.0,26.0,65,0.00,,,0.00,0.000000,,2013-06-27 19:42:00,
2013-06-27 14:53:00,84.0,70.0,29.86,ENE,62,19.0,26.0,64,0.00,,,0.00,0.000000,,2013-06-27 19:53:00,
2013-06-27 15:01:00,83.0,70.0,29.86,NE,41,16.0,24.0,65,0.00,,,0.00,0.000000,,2013-06-27 20:01:00,
2013-06-27 15:11:00,84.0,71.0,29.86,ENE,61,14.0,23.0,66,0.00,,,0.00,0.000000,,2013-06-27 20:11:00,
2013-06-27 15:22:00,84.0,70.0,29.86,NE,53,16.0,23.0,64,0.00,,,0.00,0.000000,,2013-06-27 20:22:00,
2013-06-27 15:36:00,84.0,70.0,29.86,ENE,75,14.0,26.0,63,0.00,,,0.00,0.000000,,2013-06-27 20:36:00,
2013-06-27 15:45:00,83.0,69.0,29.87,NE,52,13.0,23.0,63,0.00,,,0.00,0.000000,,2013-06-27 20:45:00,
2013-06-27 15:54:00,83.0,69.0,29.86,ENE,59,14.0,24.0,63,0.00,,,0.00,0.000000,,2013-06-27 20:54:00,
2013-06-27 16:03:00,83.0,69.0,29.86,ENE,64,17.0,22.0,63,0.00,,,0.00,0.000000,,2013-06-27 21:03:00,
2013-06-27 16:13:00,83.0,70.0,29.86,ENE,74,17.0,25.0,64,0.00,,,0.00,0.000000,,2013-06-27 21:13:00,
2013-06-27 16:24:00,83.0,69.0,29.85,ENE,60,18.0,25.0,62,0.00,,,0.00,0.000000,,2013-06-27 21:24:00,
2013-06-27 16:35:00,83.0,68.0,29.85,ENE,64,15.0,24.0,61,0.00,,,0.00,0.000000,,2013-06-27 21:35:00,
2013-06-27 16:45:00,83.0,69.0,29.84,NE,41,17.0,22.0,62,0.00,,,0.00,0.000000,,2013-06-27 21:45:00,
2013-06-27 16:53:00,84.0,70.0,29.84,ENE,65,13.0,22.0,62,0.00,,,0.00,0.000000,,2013-06-27 21:53:00,
2013-06-27 17:05:00,84.0,70.0,29.85,ENE,66,13.0,21.0,63,0.00,,,0.00,0.000000,,2013-06-27 22:05:00,
2013-06-27 17:22:00,84.0,70.0,29.85,ENE,71,15.0,21.0,62,0.00,,,0.00,0.000000,,2013-06-27 22:22:00,
2013-06-27 17:33:00,84.0,70.0,29.85,ENE,67,15.0,18.0,62,0.00,,,0.00,0.000000,,2013-06-27 22:33:00,
2013-06-27 17:47:00,84.0,70.0,29.85,NE,55,15.0,20.0,63,0.00,,,0.00,0.000000,,2013-06-27 22:47:00,
2013-06-27 17:55:00,84.0,70.0,29.85,ENE,60,14.0,20.0,63,0.00,,,0.00,0.000000,,2013-06-27 22:55:00,
2013-06-27 18:03:00,84.0,70.0,29.85,ENE,69,12.0,21.0,63,0.00,,,0.00,0.000000,,2013-06-27 23:03:00,
2013-06-27 18:15:00,83.0,69.0,29.85,ENE,59,16.0,22.0,63,0.00,,,0.00,0.000000,,2013-06-27 23:15:00,
2013-06-27 18:25:00,83.0,69.0,29.85,ENE,77,15.0,20.0,63,0.00,,,0.00,0.000000,,2013-06-27 23:25:00,
2013-06-27 18:34:00,83.0,69.0,29.85,ENE,78,13.0,20.0,62,0.00,,,0.00,0.000000,,2013-06-27 23:34:00,
2013-06-27 18:44:00,83.0,69.0,29.86,ENE,64,15.0,21.0,63,0.00,,,0.00,0.000000,,2013-06-27 23:44:00,
2013-06-27 18:54:00,83.0,69.0,29.86,ENE,70,12.0,18.0,63,0.00,,,0.00,0.000000,,2013-06-27 23:54:00,
2013-06-27 19:04:00,83.0,69.0,29.87,East,85,12.0,17.0,63,0.00,,,0.00,0.000000,,2013-06-28 00:04:00,
2013-06-27 19:13:00,83.0,70.0,29.87,ENE,72,10.0,15.0,64,0.00,,,0.00,0.000000,,2013-06-28 00:13:00,
2013-06-27 19:26:00,83.0,70.0,29.87,East,89,10.0,14.0,66,0.00,,,0.00,0.000000,,2013-06-28 00:26:00,
2013-06-27 19:34:00,83.0,71.0,29.87,ENE,63,13.0,16.0,67,0.00,,,0.00,0.000000,,2013-06-28 00:34:00,
2013-06-27 19:54:00,82.0,70.0,29.86,NE,55,12.0,14.0,68,0.00,,,0.00,0.000000,,2013-06-28 00:54:00,
2013-06-27 20:13:00,83.0,70.0,29.86,NE,36,10.0,13.0,64,0.00,,,0.00,0.000000,,2013-06-28 01:13:00,
2013-06-27 20:23:00,83.0,69.0,29.86,NE,44,9.0,15.0,62,0.00,,,0.00,0.000000,,2013-06-28 01:23:00,
2013-06-27 20:35:00,82.0,68.0,29.87,NNE,30,8.0,12.0,63,0.00,,,0.00,0.000000,,2013-06-28 01:35:00,
2013-06-27 20:45:00,82.0,68.0,29.88,NE,41,7.0,10.0,62,0.00,,,0.00,0.000000,,2013-06-28 01:45:00,
2013-06-27 20:54:00,82.0,68.0,29.87,NE,45,7.0,12.0,63,0.00,,,0.00,0.000000,,2013-06-28 01:54:00,
2013-06-27 21:04:00,81.0,68.0,29.87,NNE,23,7.0,10.0,65,0.00,,,0.00,0.000000,,2013-06-28 02:04:00,
2013-06-27 21:16:00,80.0,68.0,29.88,NE,38,6.0,9.0,67,0.00,,,0.00,0.000000,,2013-06-28 02:16:00,
2013-06-27 21:25:00,80.0,68.0,29.88,NE,44,5.0,7.0,68,0.00,,,0.00,0.000000,,2013-06-28 02:25:00,
2013-06-27 21:35:00,79.0,68.0,29.89,NE,44,5.0,7.0,70,0.00,,,0.00,0.000000,,2013-06-28 02:35:00,
2013-06-27 21:47:00,79.0,69.0,29.90,NE,44,5.0,6.0,71,0.00,,,0.00,0.000000,,2013-06-28 02:47:00,
2013-06-27 21:53:00,78.0,68.0,29.91,NE,44,5.0,5.0,72,0.00,,,0.00,0.000000,,2013-06-28 02:53:00,
2013-06-27 22:05:00,78.0,69.0,29.92,NE,44,2.0,5.0,73,0.00,,,0.00,0.000000,,2013-06-28 03:05:00,
2013-06-27 22:14:00,78.0,69.0,29.92,NE,55,1.0,3.0,74,0.00,,,0.00,0.000000,,2013-06-28 03:14:00,
2013-06-27 22:25:00,76.0,68.0,29.93,ENE,67,1.0,3.0,77,0.00,,,0.00,0.000000,,2013-06-28 03:25:00,
2013-06-27 22:36:00,76.0,69.0,29.93,ENE,67,0.0,3.0,78,0.00,,,0.00,0.000000,,2013-06-28 03:36:00,
2013-06-27 22:54:00,75.0,68.0,29.93,ENE,67,1.0,2.0,79,0.00,,,0.00,0.000000,,2013-06-28 03:54:00,
2013-06-27 23:02:00,76.0,68.0,29.93,ENE,69,3.0,3.0,77,0.00,,,0.00,0.000000,,2013-06-28 04:02:00,
2013-06-27 23:11:00,76.0,68.0,29.94,ENE,69,0.0,3.0,76,0.00,,,0.00,0.000000,,2013-06-28 04:11:00,
2013-06-27 23:22:00,75.0,68.0,29.95,ENE,69,0.0,2.0,79,0.00,,,0.00,0.000000,,2013-06-28 04:22:00,
2013-06-27 23:33:00,75.0,68.0,29.95,East,79,1.0,5.0,79,0.00,,,0.00,0.000000,,2013-06-28 04:33:00,
2013-06-27 23:43:00,74.0,67.0,29.95,East,84,1.0,5.0,80,0.00,,,0.00,0.000000,,2013-06-28 04:43:00,
2013-06-27 23:53:00,74.0,67.0,29.95,East,84,1.0,5.0,80,0.00,,,0.00,0.000000,,2013-06-28 04:53:00,